»·PEaware :: N416JK A39-P14

N416JK :: A39-P14

FLIGHT INFORMATION

Flight Status: Arrived
Operator: Privately registered:
United States
More flights under this callsign
Pilot: John K. (4202)
Aircraft: Unknown
(EPIC)
More flights by this aircraft type
Origin: A39 Ak-Chin Regional
United States
Destination: P14 Holbrook Mun
United States
More flights between these airports :: More routes between these airports
Route: POPKE V105 PXR V95 INW V264 AVANS
File this flight plan on PilotEdge
Remarks:
Altitude:
(Current/Filed)
11,000ft
Speed:
(Current/Filed)
300kts
Departed: 06-Nov-20 09:55 AM
Arrived: 06-Nov-20 10:36 AM
Distance/Time
Traveled:
146nm/0:41
Distance/Time
To Go:
Arrived

Flight Plot

Page will automatically refresh every two minutes.

Flight plan parsing failed; only flown route is shown


Map Options




Map Legend


Flown Route
Filed Route
Departure Airport
Arrival Airport
Navaid (VOR, NDB)
Fix

Horizontal Profiles

Position Reports

Time Latitude Longitude Heading Altitude Ground
Speed
06-Nov-20 09:47 32.990792 -111.919960 310 1290ft 0kts
06-Nov-20 09:48 32.990792 -111.919960 310 1290ft 0kts
06-Nov-20 09:49 32.990792 -111.919960 310 1290ft 0kts
06-Nov-20 09:50 32.990792 -111.919960 310 1290ft 0kts
06-Nov-20 09:51 32.992398 -111.918863 42 1292ft 32kts
06-Nov-20 09:52 32.997288 -111.913911 3 1302ft 0kts
06-Nov-20 09:53 32.997289 -111.913911 3 1302ft 0kts
06-Nov-20 09:54 32.990819 -111.921727 220 1437ft 144kts
06-Nov-20 09:55 32.977454 -111.968069 312 4056ft 226kts
06-Nov-20 09:56 33.041797 -111.953952 25 5699ft 265kts
06-Nov-20 09:57 33.114275 -111.936401 357 7322ft 271kts
06-Nov-20 09:58 33.189129 -111.942889 353 8907ft 270kts
06-Nov-20 09:59 33.264106 -111.951130 352 10499ft 272kts
06-Nov-20 10:00 33.342624 -111.959980 352 11001ft 302kts
06-Nov-20 10:01 33.430073 -111.968391 8 10969ft 328kts
06-Nov-20 10:02 33.509986 -111.915915 33 11026ft 331kts
06-Nov-20 10:03 33.589566 -111.859492 32 11028ft 334kts
06-Nov-20 10:04 33.669596 -111.802730 32 11028ft 335kts
06-Nov-20 10:05 33.749872 -111.745672 32 11029ft 335kts
06-Nov-20 10:06 33.830203 -111.688433 31 11030ft 337kts
06-Nov-20 10:07 33.910908 -111.630833 31 11031ft 338kts
06-Nov-20 10:08 33.991438 -111.573212 31 11132ft 335kts
06-Nov-20 10:09 34.071489 -111.515808 31 11270ft 336kts
06-Nov-20 10:10 34.151777 -111.458112 31 11263ft 337kts
06-Nov-20 10:11 34.232313 -111.400102 31 11264ft 337kts
06-Nov-20 10:12 34.313006 -111.341876 33 11263ft 339kts
06-Nov-20 10:13 34.394835 -111.282641 32 10973ft 345kts
06-Nov-20 10:14 34.476562 -111.223323 32 10971ft 341kts
06-Nov-20 10:15 34.557670 -111.164406 32 10972ft 340kts
06-Nov-20 10:16 34.638738 -111.105315 32 10973ft 341kts
06-Nov-20 10:17 34.720680 -111.045458 32 10919ft 345kts
06-Nov-20 10:18 34.758301 -111.017936 32 10919ft 345kts
06-Nov-20 10:19 34.840241 -110.957883 31 10919ft 344kts
06-Nov-20 10:20 34.921896 -110.897915 31 10920ft 343kts
06-Nov-20 10:21 35.003594 -110.837768 31 10921ft 342kts
06-Nov-20 10:22 35.043975 -110.761664 109 10921ft 251kts
06-Nov-20 10:23 35.029999 -110.681227 106 9258ft 236kts
06-Nov-20 10:24 35.018268 -110.609192 106 8917ft 197kts
06-Nov-20 10:25 35.008220 -110.547512 107 8918ft 175kts
06-Nov-20 10:26 34.999103 -110.491629 108 8935ft 156kts
06-Nov-20 10:27 34.990961 -110.441838 109 8919ft 144kts
06-Nov-20 10:28 34.983215 -110.394733 109 8920ft 140kts
06-Nov-20 10:29 34.974619 -110.343292 107 7887ft 186kts
06-Nov-20 10:30 34.961569 -110.283334 121 6565ft 159kts
06-Nov-20 10:31 34.935698 -110.246512 142 6251ft 143kts
06-Nov-20 10:32 34.919036 -110.216314 48 5971ft 160kts
06-Nov-20 10:33 34.917002 -110.162959 84 6017ft 173kts
06-Nov-20 10:34 34.942602 -110.136675 46 5247ft 70kts
06-Nov-20 10:35 34.947812 -110.130479 224 5258ft 3kts
06-Nov-20 10:36 34.941771 -110.136626 219 5246ft 29kts
06-Nov-20 10:37 34.936871 -110.141163 196 5243ft 8kts
06-Nov-20 10:38 34.936832 -110.141241 283 5243ft 0kts

Navigation Log

Ident Type
Flight plan parsing failed, navigation log unavailable